Time;durP1;ratioP1;P1;durP2;ratioP2;P2;SDS_P1;SDS_P2;PMS_P1;PMS_P2;Temp;Humidity;BMP_temperature;BMP_pressure;BME280_temperature;BME280_humidity;BME280_pressure;Samples;Min_cycle;Max_cycle;Signal;HPM_P1;HPM_P2
2022/11/09 00:00:40;;;;;;;55.78;29.33;;;;;;;7.73;100.00;97643.81;5005563;28;20511;-55
2022/11/09 00:03:07;;;;;;;51.70;26.85;;;;;;;7.68;100.00;97638.50;5005825;28;20197;-62
2022/11/09 00:05:34;;;;;;;58.83;28.13;;;;;;;7.48;100.00;97631.06;5005571;28;20115;-61
2022/11/09 00:08:04;;;;;;;54.35;27.40;;;;;;;7.65;100.00;97650.22;5004900;28;20050;-54
2022/11/09 00:10:31;;;;;;;51.58;28.42;;;;;;;7.61;100.00;97654.81;5004134;28;20132;-60
2022/11/09 00:12:58;;;;;;;56.63;28.58;;;;;;;7.34;100.00;97625.00;5005525;28;20061;-61
2022/11/09 00:15:25;;;;;;;58.13;28.83;;;;;;;7.60;100.00;97655.94;5004127;28;20108;-55
2022/11/09 00:17:51;;;;;;;58.17;31.40;;;;;;;7.53;100.00;97652.91;5004317;28;20137;-61
2022/11/09 00:20:18;;;;;;;66.28;29.50;;;;;;;7.49;100.00;97651.19;5003987;28;20473;-55
2022/11/09 00:22:49;;;;;;;59.05;28.70;;;;;;;7.24;100.00;97621.84;5005536;28;20112;-61
2022/11/09 00:25:15;;;;;;;49.80;27.55;;;;;;;7.29;100.00;97640.91;5005256;28;20056;-61
2022/11/09 00:27:42;;;;;;;57.67;31.00;;;;;;;6.41;99.90;97521.75;5005423;28;20045;-60
2022/11/09 00:30:09;;;;;;;60.55;31.42;;;;;;;7.22;100.00;97651.69;5005114;28;20053;-55
2022/11/09 00:32:36;;;;;;;56.35;29.08;;;;;;;7.35;99.89;97656.94;5005625;28;20136;-60
2022/11/09 00:35:03;;;;;;;63.22;30.10;;;;;;;7.41;100.00;97644.56;5004978;28;20149;-56
2022/11/09 00:37:29;;;;;;;52.42;27.85;;;;;;;7.39;100.00;97646.88;5005072;28;20148;-53
2022/11/09 00:39:56;;;;;;;60.75;30.30;;;;;;;7.46;100.00;97638.84;5004194;28;20237;-60
2022/11/09 00:42:23;;;;;;;60.05;29.35;;;;;;;7.43;100.00;97636.78;5005584;28;20085;-60
2022/11/09 00:44:49;;;;;;;51.00;27.83;;;;;;;7.39;100.00;97638.59;5005063;28;20089;-60
2022/11/09 00:47:16;;;;;;;58.85;28.80;;;;;;;7.17;100.00;97627.06;5005251;28;20655;-60
2022/11/09 00:49:42;;;;;;;54.28;28.58;;;;;;;7.23;100.00;97634.81;5004850;28;20411;-61
2022/11/09 00:52:09;;;;;;;54.83;27.90;;;;;;;7.28;100.00;97640.13;5003812;28;20139;-54
2022/11/09 00:54:35;;;;;;;58.70;28.95;;;;;;;6.89;100.00;97593.69;5004929;28;20093;-60
2022/11/09 00:57:02;;;;;;;54.92;27.75;;;;;;;7.18;100.00;97635.00;5003066;28;20093;-60
2022/11/09 00:59:29;;;;;;;53.95;28.50;;;;;;;7.25;100.00;97645.50;5004857;28;20142;-56
2022/11/09 01:01:55;;;;;;;53.28;29.20;;;;;;;7.32;100.00;97635.56;5005011;28;20085;-60
2022/11/09 01:04:22;;;;;;;68.38;31.38;;;;;;;6.88;100.00;97561.81;5003683;28;20525;-60
2022/11/09 01:06:48;;;;;;;63.88;28.77;;;;;;;7.36;100.00;97628.25;5011119;28;20064;-60
2022/11/09 01:09:15;;;;;;;54.72;29.02;;;;;;;6.61;100.00;97493.47;5031888;28;20475;-54
2022/11/09 01:11:42;;;;;;;58.63;28.48;;;;;;;7.28;100.00;97601.56;5024343;28;20104;-55
2022/11/09 01:14:09;;;;;;;51.45;25.92;;;;;;;7.11;100.00;97579.63;5024472;28;20107;-60
2022/11/09 01:16:36;;;;;;;52.10;25.42;;;;;;;7.58;100.00;97622.41;5024517;28;20085;-56
2022/11/09 01:19:02;;;;;;;54.97;26.67;;;;;;;7.09;100.00;97551.63;5024352;28;20041;-61
2022/11/09 01:21:29;;;;;;;50.22;26.42;;;;;;;7.69;100.00;97617.28;5028028;28;20049;-54
2022/11/09 01:23:57;;;;;;;48.60;23.52;;;;;;;7.72;100.00;97628.44;5028533;28;20512;-53
2022/11/09 01:26:24;;;;;;;48.30;24.58;;;;;;;7.22;100.00;97556.03;5027040;28;20050;-55
2022/11/09 01:28:51;;;;;;;48.67;25.20;;;;;;;7.34;100.00;97583.69;5028470;28;20084;-55
2022/11/09 01:31:19;;;;;;;47.92;26.80;;;;;;;7.51;100.00;97621.31;5027245;28;20139;-61
2022/11/09 01:33:47;;;;;;;62.55;27.80;;;;;;;7.32;100.00;97572.16;5028569;28;20084;-60
2022/11/09 01:36:17;;;;;;;61.33;29.83;;;;;;;7.68;100.00;97627.47;5028247;28;20245;-61
2022/11/09 01:38:44;;;;;;;57.30;29.85;;;;;;;7.36;100.00;97575.06;5028599;28;20144;-54
2022/11/09 01:41:22;;;;;;;54.30;30.27;;;;;;;7.72;100.00;97628.44;5026275;28;20588;-61
2022/11/09 01:44:06;;;;;;;56.88;29.20;;;;;;;7.77;100.00;97634.88;5027114;28;20692;-61
2022/11/09 01:46:40;;;;;;;56.05;29.95;;;;;;;7.64;100.00;97632.06;5027984;28;20085;-54
2022/11/09 01:49:23;;;;;;;61.97;31.30;;;;;;;7.64;100.00;97615.53;5027955;28;20419;-61
2022/11/09 01:51:55;;;;;;;58.55;29.05;;;;;;;7.59;100.00;97629.50;5026514;28;20057;-55
2022/11/09 01:54:27;;;;;;;50.10;26.38;;;;;;;7.59;100.00;97617.66;5027863;28;20539;-54
2022/11/09 01:57:00;;;;;;;50.83;27.00;;;;;;;7.52;100.00;97631.19;5027881;28;20076;-60
2022/11/09 01:59:35;;;;;;;50.72;26.38;;;;;;;7.59;100.00;97621.25;5027719;28;20623;-61
2022/11/09 02:02:03;;;;;;;54.13;26.48;;;;;;;7.52;100.00;97618.22;5027880;28;20216;-60
2022/11/09 02:04:35;;;;;;;49.28;26.85;;;;;;;7.36;100.00;97622.72;5027574;28;20084;-60
2022/11/09 02:07:03;;;;;;;55.45;27.33;;;;;;;7.52;100.00;97629.22;5026300;28;20107;-54
2022/11/09 02:09:30;;;;;;;50.45;26.83;;;;;;;7.57;100.00;97620.75;5027656;28;20136;-55
2022/11/09 02:11:56;;;;;;;48.90;26.05;;;;;;;7.07;100.00;97544.81;5027635;28;20115;-57
2022/11/09 02:14:25;;;;;;;51.35;26.23;;;;;;;7.72;100.00;97620.16;5027835;28;20077;-54
2022/11/09 02:16:52;;;;;;;51.90;26.38;;;;;;;7.89;99.39;97626.69;5027207;28;20436;-61
2022/11/09 02:19:18;;;;;;;54.55;24.92;;;;;;;7.91;98.87;97624.38;5027344;28;20081;-60
2022/11/09 02:21:45;;;;;;;52.85;25.63;;;;;;;7.75;98.86;97604.88;5027491;28;20570;-56
2022/11/09 02:24:12;;;;;;;48.80;26.27;;;;;;;7.47;98.71;97560.56;5027521;28;20496;-61
2022/11/09 02:26:49;;;;;;;51.30;26.13;;;;;;;7.73;98.62;97602.47;5027520;28;20156;-56
2022/11/09 02:29:21;;;;;;;46.30;25.30;;;;;;;7.74;100.00;97617.84;5026960;28;20516;-53
2022/11/09 02:31:56;;;;;;;57.17;29.35;;;;;;;7.91;98.95;97624.38;5026442;28;20085;-55
2022/11/09 02:34:23;;;;;;;54.75;29.13;;;;;;;7.33;98.86;97532.44;5027369;28;20136;-60
2022/11/09 02:36:50;;;;;;;55.25;30.20;;;;;;;7.80;98.78;97620.41;5027275;28;20085;-53
2022/11/09 02:39:19;;;;;;;56.70;30.20;;;;;;;7.74;99.31;97620.63;5025615;28;20091;-54
2022/11/09 02:41:53;;;;;;;57.03;30.05;;;;;;;7.69;100.00;97623.59;5026908;28;20116;-61
2022/11/09 02:44:19;;;;;;;55.70;28.98;;;;;;;7.55;100.00;97598.25;5027059;28;20150;-57
2022/11/09 02:46:46;;;;;;;56.15;30.77;;;;;;;7.70;100.00;97624.38;5026667;28;20089;-60
2022/11/09 02:49:13;;;;;;;61.00;30.88;;;;;;;7.64;100.00;97623.81;5026366;28;20607;-56
2022/11/09 02:51:40;;;;;;;56.75;29.77;;;;;;;7.44;100.00;97599.81;5026608;28;20589;-61
2022/11/09 02:54:07;;;;;;;60.00;28.75;;;;;;;7.66;99.04;97621.53;5026736;28;20606;-54
2022/11/09 02:56:33;;;;;;;53.75;29.58;;;;;;;7.34;98.30;97578.16;5002270;28;20698;-60
2022/11/09 02:59:02;;;;;;;58.97;28.90;;;;;;;7.20;98.67;97610.69;5039636;28;20132;-60
2022/11/09 03:01:29;;;;;;;57.92;29.13;;;;;;;7.23;99.34;97606.44;5000986;28;20531;-60
2022/11/09 03:03:56;;;;;;;52.25;28.45;;;;;;;7.53;98.86;97632.81;5014268;28;20562;-54
2022/11/09 03:06:33;;;;;;;56.03;26.83;;;;;;;7.40;98.58;97596.09;5012300;28;20059;-54
2022/11/09 03:09:02;;;;;;;55.92;27.23;;;;;;;7.69;99.59;97634.63;5002817;28;20051;-60
2022/11/09 03:11:29;;;;;;;50.47;26.90;;;;;;;7.71;100.00;97626.81;5032981;28;20056;-60
2022/11/09 03:13:56;;;;;;;51.08;28.05;;;;;;;7.81;100.00;97631.09;5026463;28;20088;-60
2022/11/09 03:16:23;;;;;;;56.10;29.38;;;;;;;7.74;99.42;97639.91;5026479;28;20163;-55
2022/11/09 03:18:50;;;;;;;55.47;29.67;;;;;;;7.71;99.16;97632.31;5026359;28;20081;-54
2022/11/09 03:21:18;;;;;;;55.63;29.23;;;;;;;7.38;99.94;97594.84;5026011;28;20571;-56
2022/11/09 03:23:45;;;;;;;54.67;28.08;;;;;;;7.36;99.78;97553.84;5026399;28;20107;-56
2022/11/09 03:26:11;;;;;;;59.58;29.60;;;;;;;7.92;100.00;97637.03;5024981;28;20880;-60
2022/11/09 03:28:38;;;;;;;50.03;26.67;;;;;;;8.00;100.00;97628.66;5025836;28;20126;-60
2022/11/09 03:31:05;;;;;;;49.17;25.60;;;;;;;8.12;100.00;97638.94;5025898;28;20465;-56
2022/11/09 03:33:31;;;;;;;47.55;25.48;;;;;;;8.10;100.00;97633.75;5025905;28;20057;-54
2022/11/09 03:35:58;;;;;;;50.67;25.60;;;;;;;8.02;100.00;97631.06;5026031;28;20080;-57
2022/11/09 03:38:25;;;;;;;45.08;25.55;;;;;;;8.12;100.00;97637.00;5026137;28;20143;-60
2022/11/09 03:40:52;;;;;;;47.80;25.65;;;;;;;8.28;100.00;97634.41;5024463;28;20053;-60
2022/11/09 03:43:18;;;;;;;49.70;26.80;;;;;;;8.31;100.00;97630.97;5025901;28;20483;-61
2022/11/09 03:45:46;;;;;;;52.20;25.38;;;;;;;8.27;100.00;97627.28;5025644;28;20084;-54
2022/11/09 03:48:13;;;;;;;49.77;26.37;;;;;;;8.32;100.00;97629.81;4339800;28;5002102;-54
2022/11/09 03:50:39;;;;;;;46.88;26.75;;;;;;;8.21;100.00;97628.59;5029116;28;20060;-61
2022/11/09 03:53:08;;;;;;;55.80;26.63;;;;;;;8.38;100.00;97628.44;5025842;28;20161;-54
2022/11/09 03:55:35;;;;;;;48.53;27.08;;;;;;;8.33;100.00;97626.72;5025614;28;20539;-55
2022/11/09 03:58:03;;;;;;;50.92;26.55;;;;;;;8.28;100.00;97590.25;5025442;28;20156;-56
2022/11/09 04:00:31;;;;;;;49.72;27.38;;;;;;;8.57;100.00;97625.94;5025234;28;20135;-61
2022/11/09 04:02:57;;;;;;;55.05;29.98;;;;;;;8.69;99.78;97631.50;5025342;28;20159;-60
2022/11/09 04:05:24;;;;;;;70.43;39.65;;;;;;;8.41;99.09;97578.09;5025107;28;20153;-61
2022/11/09 04:07:53;;;;;;;70.07;39.00;;;;;;;8.43;98.32;97586.81;5025528;28;20187;-57
2022/11/09 04:10:21;;;;;;;74.05;35.80;;;;;;;8.59;97.40;97630.00;5025375;28;20133;-61
2022/11/09 04:12:48;;;;;;;56.50;28.95;;;;;;;8.67;94.48;97631.03;5025221;28;20136;-54
2022/11/09 04:15:14;;;;;;;52.85;27.48;;;;;;;8.72;92.43;97631.63;5025256;28;20076;-54
2022/11/09 04:17:43;;;;;;;50.38;27.33;;;;;;;8.62;92.71;97634.00;5025376;28;20085;-54
2022/11/09 04:20:10;;;;;;;54.88;29.15;;;;;;;8.46;93.87;97628.34;5025753;28;20057;-61
2022/11/09 04:22:37;;;;;;;53.35;28.00;;;;;;;8.36;94.30;97609.47;5025524;28;20584;-54
2022/11/09 04:25:04;;;;;;;59.95;30.13;;;;;;;8.52;94.20;97635.25;5024979;28;20590;-60
2022/11/09 04:27:31;;;;;;;69.30;31.98;;;;;;;8.32;96.75;97624.28;5025434;28;20080;-55
2022/11/09 04:29:57;;;;;;;74.68;36.83;;;;;;;8.24;97.17;97616.91;5025184;28;20584;-61
2022/11/09 04:32:24;;;;;;;73.20;38.17;;;;;;;8.37;98.52;97632.38;5025332;28;20084;-56
2022/11/09 04:34:51;;;;;;;74.47;37.33;;;;;;;8.46;98.02;97624.78;5023916;28;20483;-61
2022/11/09 04:37:17;;;;;;;74.05;35.85;;;;;;;8.53;98.12;97636.09;5024754;28;20572;-61
2022/11/09 04:39:44;;;;;;;57.10;29.85;;;;;;;8.29;99.00;97636.03;5024929;28;20080;-61
2022/11/09 04:42:10;;;;;;;62.70;30.13;;;;;;;7.66;100.00;97573.84;5023451;28;20059;-59
2022/11/09 04:44:37;;;;;;;64.82;30.52;;;;;;;7.64;100.00;97626.56;5024635;28;20088;-55
2022/11/09 04:47:04;;;;;;;65.95;31.55;;;;;;;7.73;100.00;97635.56;5024698;28;20049;-53
2022/11/09 04:49:30;;;;;;;64.97;31.35;;;;;;;7.98;100.00;97630.16;5024099;28;20849;-60
2022/11/09 04:51:57;;;;;;;57.13;29.48;;;;;;;8.11;100.00;97629.06;5024750;28;20556;-61
2022/11/09 04:54:23;;;;;;;50.28;25.98;;;;;;;8.11;99.41;97638.13;5026146;28;20152;-60
2022/11/09 04:56:50;;;;;;;46.35;26.02;;;;;;;7.83;97.92;97583.88;5029997;28;20108;-54
2022/11/09 04:59:17;;;;;;;58.67;28.88;;;;;;;8.23;97.40;97637.38;5029665;28;20087;-61
2022/11/09 05:01:43;;;;;;;130.30;53.25;;;;;;;8.15;97.09;97647.34;5031314;28;20076;-60
2022/11/09 05:04:10;;;;;;;113.05;49.70;;;;;;;8.19;97.15;97644.72;5031096;28;20162;-61
2022/11/09 05:06:37;;;;;;;95.90;43.88;;;;;;;7.69;96.99;97560.19;5029781;28;20068;-61
2022/11/09 05:09:05;;;;;;;59.55;34.15;;;;;;;8.32;96.01;97647.19;5031347;28;20456;-57
2022/11/09 05:11:34;;;;;;;65.93;33.92;;;;;;;8.43;96.13;97653.06;5029327;28;20076;-54
2022/11/09 05:14:01;;;;;;;61.63;34.83;;;;;;;8.44;96.44;97651.94;5030874;28;20088;-57
2022/11/09 05:16:28;;;;;;;67.40;38.30;;;;;;;8.53;96.32;97669.22;5030882;28;20104;-61
2022/11/09 05:18:55;;;;;;;64.10;37.95;;;;;;;8.54;96.85;97665.28;5030853;28;20140;-61
2022/11/09 05:21:22;;;;;;;69.93;40.78;;;;;;;8.22;96.91;97580.56;5030936;28;20508;-55
2022/11/09 05:23:58;;;;;;;76.22;39.15;;;;;;;8.56;95.84;97613.31;5030918;28;20060;-54
2022/11/09 05:26:33;;;;;;;75.47;41.55;;;;;;;8.95;94.82;97659.59;5031199;28;20132;-54
2022/11/09 05:29:02;;;;;;;78.00;42.63;;;;;;;8.94;95.47;97664.34;5031271;28;20128;-61
2022/11/09 05:31:29;;;;;;;82.18;46.38;;;;;;;8.93;95.58;97639.81;5030971;28;20106;-56
2022/11/09 05:33:56;;;;;;;84.97;44.65;;;;;;;8.52;95.01;97554.41;5029573;28;20049;-60
2022/11/09 05:36:22;;;;;;;91.13;45.10;;;;;;;9.25;95.60;97663.75;5030841;28;20077;-54
2022/11/09 05:38:49;;;;;;;104.60;50.28;;;;;;;9.37;94.78;97666.50;5031192;28;20053;-55
2022/11/09 05:41:16;;;;;;;83.47;42.22;;;;;;;9.19;94.49;97626.44;5030835;28;20643;-61
2022/11/09 05:43:44;;;;;;;71.85;36.50;;;;;;;9.04;94.47;97610.56;5029294;28;20508;-61
2022/11/09 05:46:14;;;;;;;64.78;32.22;;;;;;;9.50;94.02;97676.38;5030915;28;20057;-54
2022/11/09 05:48:42;;;;;;;77.05;32.70;;;;;;;9.08;93.47;97605.94;5030032;28;20546;-60
2022/11/09 05:51:10;;;;;;;74.28;34.58;;;;;;;9.53;93.83;97680.44;5029448;28;20061;-61
2022/11/09 05:53:39;;;;;;;72.85;38.25;;;;;;;9.64;94.12;97674.06;5029300;28;20049;-54
2022/11/09 05:56:12;;;;;;;;;;;;;;;9.67;93.57;97675.34;5029844;28;20064;-60
2022/11/09 05:58:40;;;;;;;73.18;37.72;;;;;;;9.72;93.03;97684.19;5030625;28;19968;-54
2022/11/09 06:01:12;;;;;;;62.33;32.22;;;;;;;9.77;93.87;97675.66;5031057;28;20049;-60
2022/11/09 06:03:40;;;;;;;57.35;33.50;;;;;;;9.71;94.71;97671.53;5030488;28;20088;-54
2022/11/09 06:06:08;;;;;;;62.70;32.65;;;;;;;9.87;94.72;97679.88;5028776;28;20088;-55
2022/11/09 06:08:36;;;;;;;74.50;31.52;;;;;;;9.92;93.84;97672.16;5025776;28;20092;-54
2022/11/09 06:11:05;;;;;;;61.63;31.85;;;;;;;9.71;92.88;97627.25;5027772;28;20128;-61
2022/11/09 06:13:32;;;;;;;68.55;32.97;;;;;;;9.88;92.50;97638.03;5025859;28;20574;-55
2022/11/09 06:16:01;;;;;;;95.32;32.60;;;;;;;10.34;91.96;97695.56;5027275;28;20435;-55
2022/11/09 06:18:29;;;;;;;78.82;33.58;;;;;;;10.27;91.53;97673.22;5025801;28;20085;-60
2022/11/09 06:20:58;;;;;;;78.40;33.97;;;;;;;10.42;91.88;97691.81;5026914;28;20095;-61
2022/11/09 06:23:25;;;;;;;67.32;32.97;;;;;;;10.66;91.49;97686.16;5027067;28;20053;-60
2022/11/09 06:25:56;;;;;;;86.72;33.15;;;;;;;10.85;90.39;97687.41;5027471;28;20077;-61
2022/11/09 06:28:23;;;;;;;74.78;33.15;;;;;;;10.63;91.26;97692.41;5027048;28;20132;-55
2022/11/09 06:30:50;;;;;;;100.22;39.17;;;;;;;10.83;91.03;97692.53;5027300;28;20049;-61
2022/11/09 06:33:16;;;;;;;95.65;38.45;;;;;;;10.06;88.59;97556.31;5022481;28;20459;-56
2022/11/09 06:35:43;;;;;;;83.60;36.08;;;;;;;10.88;88.71;97693.06;5024716;28;20068;-68
2022/11/09 06:38:10;;;;;;;71.03;33.17;;;;;;;10.78;88.73;97670.63;5026753;28;20515;-69
2022/11/09 06:40:38;;;;;;;73.55;34.90;;;;;;;10.92;88.83;97668.22;5026511;28;20061;-67
2022/11/09 06:43:04;;;;;;;77.38;34.72;;;;;;;10.72;88.88;97655.44;5026173;28;20441;-69
2022/11/09 06:45:32;;;;;;;74.88;34.45;;;;;;;10.77;88.54;97610.81;5024928;28;20532;-63
2022/11/09 06:48:01;;;;;;;85.68;36.25;;;;;;;11.33;87.26;97687.09;5026252;28;20111;-52
2022/11/09 06:50:30;;;;;;;87.95;35.22;;;;;;;11.42;87.32;97690.47;5026841;28;20140;-63
2022/11/09 06:53:01;;;;;;;99.45;36.35;;;;;;;11.74;85.85;97692.06;5029269;28;20045;-58
2022/11/09 06:55:29;;;;;;;84.03;34.75;;;;;;;11.74;86.26;97686.50;5025097;28;20606;-62
2022/11/09 06:57:57;;;;;;;68.60;32.33;;;;;;;11.71;85.28;97637.28;5025500;28;20104;-59
2022/11/09 07:00:25;;;;;;;61.40;32.97;;;;;;;12.24;85.03;97686.41;5006795;28;20563;-56
2022/11/09 07:02:51;;;;;;;71.15;32.08;;;;;;;12.50;84.82;97681.00;5021219;28;20441;-59
2022/11/09 07:05:18;;;;;;;57.10;31.13;;;;;;;12.68;84.71;97687.69;5035754;28;20520;-65
2022/11/09 07:07:45;;;;;;;65.25;30.02;;;;;;;12.87;84.12;97695.97;5043556;28;20080;-65
2022/11/09 07:10:12;;;;;;;63.72;30.40;;;;;;;12.90;83.40;97695.25;5025783;28;20107;-56
2022/11/09 07:12:38;;;;;;;52.63;32.05;;;;;;;12.49;83.27;97629.34;5026158;28;20091;-60
2022/11/09 07:15:06;;;;;;;57.10;32.13;;;;;;;12.99;82.29;97648.53;5026086;28;20077;-68
2022/11/09 07:17:33;;;;;;;52.17;29.80;;;;;;;13.35;82.16;97673.03;5024296;28;20603;-59
2022/11/09 07:20:00;;;;;;;49.00;28.40;;;;;;;13.05;81.89;97619.28;5025293;28;20136;-60
2022/11/09 07:22:27;;;;;;;52.35;31.52;;;;;;;13.32;81.30;97645.94;5004950;28;20124;-57
2022/11/09 07:24:54;;;;;;;61.28;31.25;;;;;;;13.25;80.73;97631.91;5008877;28;20084;-55
2022/11/09 07:27:21;;;;;;;58.25;31.73;;;;;;;13.64;80.29;97669.50;4797265;28;5001391;-61
2022/11/09 07:29:53;;;;;;;70.88;32.63;;;;;;;13.59;80.07;97667.03;5034053;28;20049;-58
2022/11/09 07:32:19;;;;;;;83.13;32.58;;;;;;;13.63;80.58;97667.91;5030453;28;20467;-62
2022/11/09 07:35:03;;;;;;;81.68;32.80;;;;;;;13.78;79.72;97668.09;5045942;28;20053;-58
2022/11/09 07:37:30;;;;;;;69.40;31.13;;;;;;;13.29;79.22;97574.34;5045608;28;20083;-59
2022/11/09 07:39:57;;;;;;;63.28;30.50;;;;;;;13.08;78.74;97540.66;5044494;28;20095;-62
2022/11/09 07:42:24;;;;;;;56.47;28.75;;;;;;;13.47;78.74;97580.97;5026702;28;20140;-61
2022/11/09 07:44:50;;;;;;;56.15;28.92;;;;;;;14.06;78.74;97691.59;5023799;28;20641;-58
2022/11/09 07:47:18;;;;;;;51.03;28.08;;;;;;;13.84;78.57;97634.00;5025501;28;20138;-56
2022/11/09 07:49:45;;;;;;;50.25;28.00;;;;;;;14.04;78.69;97643.00;5023716;28;20168;-56
2022/11/09 07:52:12;;;;;;;61.38;29.05;;;;;;;13.92;77.16;97618.97;5024782;28;20429;-55
2022/11/09 07:54:39;;;;;;;58.47;28.65;;;;;;;13.93;76.83;97597.47;5024075;28;20575;-62
2022/11/09 07:57:06;;;;;;;67.13;32.42;;;;;;;14.45;76.61;97658.66;5025484;28;20132;-62
2022/11/09 07:59:33;;;;;;;65.20;33.00;;;;;;;14.33;76.67;97636.63;5024664;28;20108;-62
2022/11/09 08:01:59;;;;;;;67.53;32.53;;;;;;;12.88;75.96;97350.03;5023208;28;20054;-59
2022/11/09 08:04:26;;;;;;;69.78;33.83;;;;;;;14.22;74.43;97558.47;5022893;28;20046;-66
2022/11/09 08:06:53;;;;;;;64.35;31.15;;;;;;;15.04;74.40;97652.94;5025176;28;20136;-62
2022/11/09 08:09:20;;;;;;;59.97;30.73;;;;;;;15.34;73.39;97656.38;5025058;28;20053;-58
2022/11/09 08:11:46;;;;;;;67.30;32.30;;;;;;;15.44;72.89;97660.47;5024783;28;20081;-67
2022/11/09 08:14:13;;;;;;;61.35;31.95;;;;;;;15.37;72.29;97605.34;5025229;28;20570;-57
2022/11/09 08:16:39;;;;;;;58.97;28.67;;;;;;;15.44;70.90;97594.28;5023736;28;20081;-58
2022/11/09 08:19:08;;;;;;;52.47;29.33;;;;;;;13.80;70.55;97301.75;5025195;28;20053;-60
2022/11/09 08:21:36;;;;;;;51.58;31.25;;;;;;;16.20;69.96;97654.56;5023665;28;20049;-63
2022/11/09 08:24:04;;;;;;;53.38;29.98;;;;;;;16.24;69.32;97630.25;5025026;28;20107;-58
2022/11/09 08:26:31;;;;;;;43.13;25.73;;;;;;;16.06;68.64;97570.66;5022792;28;20085;-63
2022/11/09 08:28:58;;;;;;;38.10;24.23;;;;;;;16.41;66.86;97628.69;5024609;28;20504;-63
2022/11/09 08:31:24;;;;;;;42.13;26.00;;;;;;;16.36;68.10;97662.66;5023924;28;20045;-62
2022/11/09 08:33:51;;;;;;;39.50;22.42;;;;;;;16.35;68.05;97664.66;5023106;28;20118;-58
2022/11/09 08:36:18;;;;;;;40.65;24.30;;;;;;;16.22;67.71;97624.25;5023303;28;20111;-65
2022/11/09 08:38:45;;;;;;;45.20;26.38;;;;;;;16.51;67.38;97639.97;5022575;28;20079;-55
2022/11/09 08:41:12;;;;;;;45.50;24.45;;;;;;;16.72;66.85;97652.41;5029943;28;20498;-61
2022/11/09 08:43:40;;;;;;;48.05;26.48;;;;;;;16.85;66.90;97650.84;5021550;28;20053;-60
2022/11/09 08:46:06;;;;;;;46.17;24.50;;;;;;;16.67;65.74;97591.25;5022166;28;20507;-60
2022/11/09 08:48:33;;;;;;;42.40;24.33;;;;;;;16.97;65.42;97602.88;5022524;28;20054;-61
2022/11/09 08:51:00;;;;;;;40.00;24.55;;;;;;;17.55;64.25;97645.31;5020266;28;20431;-65
2022/11/09 08:53:28;;;;;;;33.78;23.15;;;;;;;15.50;62.82;97307.91;5023149;28;20131;-60
2022/11/09 08:55:55;;;;;;;34.33;21.90;;;;;;;17.68;62.96;97649.31;5022488;28;20348;-64
2022/11/09 08:58:22;;;;;;;31.95;20.20;;;;;;;17.91;61.72;97647.69;5023132;28;20216;-59
2022/11/09 09:00:49;;;;;;;36.47;19.23;;;;;;;17.58;60.61;97582.88;5021719;28;20439;-68
2022/11/09 09:03:16;;;;;;;38.35;22.63;;;;;;;17.88;60.65;97608.44;5021980;28;20087;-69
2022/11/09 09:05:43;;;;;;;33.95;22.20;;;;;;;18.37;60.08;97664.38;5022121;28;20053;-62
2022/11/09 09:08:11;;;;;;;46.33;24.27;;;;;;;18.47;59.58;97649.53;5022307;28;20049;-68
2022/11/09 09:10:39;;;;;;;40.30;22.42;;;;;;;18.39;59.34;97650.78;5020346;28;20162;-56
2022/11/09 09:13:06;;;;;;;34.75;21.42;;;;;;;18.49;59.34;97646.34;5022140;28;20060;-58
2022/11/09 09:15:33;;;;;;;31.58;20.40;;;;;;;18.12;57.67;97596.34;5024157;28;20104;-57
2022/11/09 09:18:01;;;;;;;32.45;19.92;;;;;;;17.97;58.65;97583.59;5022463;28;20460;-69
2022/11/09 09:20:27;;;;;;;55.15;25.83;;;;;;;17.97;58.59;97589.22;5014690;28;20156;-56
2022/11/09 09:22:58;;;;;;;33.55;21.05;;;;;;;18.14;59.36;97650.03;5024722;28;20444;-59
2022/11/09 09:25:25;;;;;;;33.53;20.55;;;;;;;17.90;59.35;97595.63;5022919;28;20111;-69
2022/11/09 09:27:52;;;;;;;39.00;20.65;;;;;;;18.22;58.61;97670.44;5021394;28;20045;-65
2022/11/09 09:30:19;;;;;;;32.92;20.42;;;;;;;18.35;59.03;97632.34;5023770;28;20136;-63
2022/11/09 09:32:45;;;;;;;32.00;20.00;;;;;;;18.26;58.93;97629.94;5022709;28;20095;-72
2022/11/09 09:35:12;;;;;;;32.20;20.25;;;;;;;18.27;58.94;97631.56;5022526;28;20593;-57
2022/11/09 09:37:38;;;;;;;35.60;22.00;;;;;;;18.60;58.30;97628.25;5022606;28;20085;-59
2022/11/09 09:40:05;;;;;;;34.80;20.15;;;;;;;18.35;57.86;97577.03;5022642;28;20587;-65
2022/11/09 09:42:41;;;;;;;37.40;20.88;;;;;;;18.70;57.32;97557.19;5026580;28;20087;-64
2022/11/09 09:45:19;;;;;;;33.45;20.83;;;;;;;18.75;55.67;97511.88;5026971;28;20049;-64
2022/11/09 09:48:11;;;;;;;40.83;21.13;;;;;;;19.42;55.47;97607.66;5027461;28;20049;-59
2022/11/09 09:50:59;;;;;;;30.88;21.27;;;;;;;19.33;55.50;97615.72;5025946;28;20592;-59
2022/11/09 09:53:32;;;;;;;34.05;20.88;;;;;;;19.28;55.57;97585.28;5025587;28;20135;-63
2022/11/09 09:56:05;;;;;;;27.95;18.33;;;;;;;18.85;55.03;97499.75;5026984;28;20111;-59
2022/11/09 09:58:33;;;;;;;29.52;20.02;;;;;;;19.45;55.17;97589.97;5025058;28;20065;-61
2022/11/09 10:01:10;;;;;;;27.10;20.98;;;;;;;19.66;54.97;97593.78;5026981;28;20096;-65
2022/11/09 10:03:37;;;;;;;30.67;18.73;;;;;;;19.70;53.28;97589.72;5026951;28;20084;-58
2022/11/09 10:06:31;;;;;;;29.42;19.38;;;;;;;19.72;53.60;97586.47;5026271;28;20495;-59
2022/11/09 10:09:13;;;;;;;37.95;19.70;;;;;;;19.84;53.52;97583.94;5027120;28;20089;-58
2022/11/09 10:11:50;;;;;;;30.85;20.13;;;;;;;19.96;53.09;97580.59;5026348;28;20115;-64
2022/11/09 10:14:27;;;;;;;35.38;21.27;;;;;;;19.79;52.87;97580.78;5027151;28;20136;-64
2022/11/09 10:17:02;;;;;;;29.35;19.30;;;;;;;18.33;52.45;97345.84;5026834;28;20058;-64
2022/11/09 10:19:52;;;;;;;33.50;20.48;;;;;;;19.31;53.22;97517.03;5019390;28;20088;-64
2022/11/09 10:22:34;;;;;;;28.25;20.08;;;;;;;19.57;53.32;97585.81;5025549;28;20696;-58
2022/11/09 10:25:11;;;;;;;28.63;19.67;;;;;;;19.49;53.18;97565.41;5026583;28;20073;-63
2022/11/09 10:27:56;;;;;;;30.23;20.52;;;;;;;18.98;53.32;97467.16;5025973;28;20059;-61
2022/11/09 10:30:25;;;;;;;43.35;29.95;;;;;;;18.49;54.74;97506.84;5026160;28;20628;-58
2022/11/09 10:33:01;;;;;;;31.00;19.58;;;;;;;18.67;55.89;97580.47;5026481;28;20136;-60
2022/11/09 10:35:34;;;;;;;30.08;19.27;;;;;;;18.72;55.97;97574.44;5025585;28;20080;-59
2022/11/09 10:38:00;;;;;;;33.95;21.70;;;;;;;19.14;55.17;97574.13;5026042;28;20657;-58
2022/11/09 10:40:40;;;;;;;31.05;19.73;;;;;;;19.52;54.53;97567.38;5025928;28;20096;-66
2022/11/09 10:43:12;;;;;;;24.27;18.25;;;;;;;19.72;53.62;97559.16;5025403;28;20057;-60
2022/11/09 10:45:42;;;;;;;35.92;21.30;;;;;;;17.90;54.78;97346.16;5023480;28;20053;-65
2022/11/09 10:48:11;;;;;;;31.88;18.98;;;;;;;19.71;53.70;97559.59;5025664;28;20107;-59
2022/11/09 10:50:51;;;;;;;27.75;17.75;;;;;;;19.68;52.67;97543.56;5024163;28;20080;-64
2022/11/09 10:53:23;;;;;;;28.92;18.88;;;;;;;20.06;52.45;97556.38;5024085;28;20053;-58
2022/11/09 10:55:54;;;;;;;25.60;18.80;;;;;;;19.87;52.71;97543.72;5024997;28;20053;-64
2022/11/09 10:58:51;;;;;;;29.92;19.23;;;;;;;20.10;52.40;97551.50;5024528;28;20111;-61
2022/11/09 11:01:19;;;;;;;32.20;21.48;;;;;;;18.68;52.90;97410.09;5023711;28;20053;-61
2022/11/09 11:03:50;;;;;;;33.13;20.05;;;;;;;18.91;54.57;97559.06;5024846;28;21327;-59
2022/11/09 11:06:19;;;;;;;35.42;21.27;;;;;;;18.86;55.85;97540.66;5025672;28;20077;-60
2022/11/09 11:08:47;;;;;;;42.22;24.40;;;;;;;19.19;55.23;97542.78;5025411;28;20080;-61
2022/11/09 11:11:32;;;;;;;37.55;21.23;;;;;;;16.88;54.33;97168.75;5024756;28;20053;-65
2022/11/09 11:14:13;;;;;;;34.80;21.80;;;;;;;19.52;54.33;97539.28;5023987;28;20085;-60
2022/11/09 11:16:45;;;;;;;;;;;;;;;19.53;53.69;97529.66;5033950;28;20049;-61
2022/11/09 11:19:33;;;;;;;31.65;21.92;;;;;;;19.26;54.33;97511.84;5024504;28;20473;-59
2022/11/09 11:22:18;;;;;;;33.50;20.15;;;;;;;19.48;53.24;97529.31;5020587;28;20085;-62
2022/11/09 11:24:49;;;;;;;27.52;18.33;;;;;;;17.41;53.41;97191.56;5025014;28;20087;-64
2022/11/09 11:27:26;;;;;;;26.90;18.60;;;;;;;19.61;53.26;97521.13;5025085;28;20077;-63